Time;durP1;ratioP1;P1;durP2;ratioP2;P2;SDS_P1;SDS_P2;PMS_P1;PMS_P2;Temp;Humidity;BMP_temperature;BMP_pressure;BME280_temperature;BME280_humidity;BME280_pressure;Samples;Min_cycle;Max_cycle;Signal;HPM_P1;HPM_P2
2021/10/24 00:01:03;;;;;;;4.80;0.90;;;;;;;23.90;38.79;100792.94;5052176;28;20669;-77
2021/10/24 00:03:30;;;;;;;1.30;0.60;;;;;;;23.90;38.86;100779.00;5052166;28;20471;-76
2021/10/24 00:05:56;;;;;;;4.32;1.40;;;;;;;24.08;38.56;100779.72;5052150;28;20036;-76
2021/10/24 00:08:22;;;;;;;1.85;0.50;;;;;;;24.10;38.41;100771.72;5055041;28;20031;-77
2021/10/24 00:10:48;;;;;;;2.67;0.82;;;;;;;23.99;38.97;100765.41;5055876;28;20495;-76
2021/10/24 00:13:14;;;;;;;3.83;0.73;;;;;;;23.77;39.06;100756.31;5056013;28;20021;-76
2021/10/24 00:15:39;;;;;;;1.20;0.60;;;;;;;23.95;38.77;100756.22;5056010;28;20020;-76
2021/10/24 00:18:05;;;;;;;1.45;0.88;;;;;;;23.76;39.12;100751.91;5055924;28;20028;-76
2021/10/24 00:20:32;;;;;;;1.13;0.45;;;;;;;23.98;38.97;100764.63;5054594;28;20029;-75
2021/10/24 00:22:59;;;;;;;0.75;0.50;;;;;;;23.94;38.83;100758.22;5055796;28;20017;-76
2021/10/24 00:25:25;;;;;;;3.53;1.10;;;;;;;23.98;38.80;100761.81;5055778;28;20028;-76
2021/10/24 00:27:51;;;;;;;1.95;0.80;;;;;;;23.84;39.39;100758.28;5054117;28;20033;-76
2021/10/24 00:30:17;;;;;;;2.88;0.90;;;;;;;23.92;39.17;100748.69;5055438;28;20095;-76
2021/10/24 00:32:42;;;;;;;5.68;1.08;;;;;;;23.83;39.40;100740.75;5055671;28;20052;-76
2021/10/24 00:35:08;;;;;;;2.35;0.93;;;;;;;23.50;40.47;100728.84;5055570;28;20059;-82
2021/10/24 00:37:34;;;;;;;4.10;1.55;;;;;;;23.67;40.01;100718.88;5055522;28;20468;-76
2021/10/24 00:40:00;;;;;;;6.38;1.08;;;;;;;23.53;40.43;100718.88;5055530;28;20033;-76
2021/10/24 00:42:25;;;;;;;3.35;1.00;;;;;;;23.47;40.74;100723.25;5055485;28;20023;-76
2021/10/24 00:44:51;;;;;;;2.58;1.00;;;;;;;23.50;40.88;100720.50;5055459;28;20021;-76
2021/10/24 00:47:17;;;;;;;4.68;0.93;;;;;;;23.73;40.05;100733.22;5055388;28;20025;-76
2021/10/24 00:49:43;;;;;;;2.75;0.90;;;;;;;23.71;40.12;100728.00;5055311;28;20071;-76
2021/10/24 00:52:10;;;;;;;4.82;1.02;;;;;;;23.76;40.37;100724.81;5053955;28;20388;-76
2021/10/24 00:54:38;;;;;;;2.17;0.80;;;;;;;23.72;40.47;100726.81;5055234;28;20032;-77
2021/10/24 00:57:04;;;;;;;3.75;1.20;;;;;;;23.56;40.70;100726.44;5055203;28;20021;-79
2021/10/24 00:59:30;;;;;;;2.22;1.17;;;;;;;23.68;40.90;100733.63;5053874;28;20025;-76
2021/10/24 01:01:55;;;;;;;3.00;1.10;;;;;;;23.52;40.92;100726.44;5055245;28;20483;-77
2021/10/24 01:04:24;;;;;;;2.58;1.17;;;;;;;23.70;40.72;100717.25;5053798;28;20024;-76
2021/10/24 01:06:51;;;;;;;3.42;1.00;;;;;;;23.16;42.30;100702.59;5055087;28;20402;-76
2021/10/24 01:09:20;;;;;;;2.40;0.90;;;;;;;23.17;42.17;100693.84;5054988;28;20029;-76
2021/10/24 01:11:47;;;;;;;2.10;0.75;;;;;;;23.07;42.72;100693.84;5054882;28;20070;-76
2021/10/24 01:14:12;;;;;;;3.80;1.17;;;;;;;23.35;42.05;100698.59;5053988;28;20060;-82
2021/10/24 01:16:40;;;;;;;3.58;1.10;;;;;;;23.09;43.09;100700.63;5054027;28;20056;-76
2021/10/24 01:19:07;;;;;;;4.10;1.33;;;;;;;23.29;42.33;100708.56;5054186;28;20021;-76
2021/10/24 01:21:34;;;;;;;4.05;1.00;;;;;;;23.50;41.88;100706.53;5054694;28;20475;-76
2021/10/24 01:24:01;;;;;;;5.60;1.85;;;;;;;23.59;41.76;100708.91;5054765;28;20036;-76
2021/10/24 01:26:28;;;;;;;6.97;1.35;;;;;;;23.70;41.26;100695.75;5053366;28;20369;-77
2021/10/24 01:28:54;;;;;;;4.68;1.23;;;;;;;23.47;41.82;100698.16;5053066;28;20029;-77
2021/10/24 01:31:21;;;;;;;2.17;1.00;;;;;;;23.51;41.79;100696.97;5054566;28;20493;-76
2021/10/24 01:33:47;;;;;;;3.47;1.17;;;;;;;23.66;41.66;100697.75;5054544;28;20037;-76
2021/10/24 01:36:12;;;;;;;4.85;1.52;;;;;;;23.37;42.11;100704.56;5054413;28;20053;-76
2021/10/24 01:38:43;;;;;;;3.75;1.23;;;;;;;23.58;42.05;100704.53;5053160;28;20031;-76
2021/10/24 01:41:10;;;;;;;8.68;1.70;;;;;;;23.41;42.30;100691.41;5052801;28;20040;-76
2021/10/24 01:43:36;;;;;;;4.03;1.00;;;;;;;23.62;41.45;100702.53;5054069;28;20029;-82
2021/10/24 01:46:03;;;;;;;2.28;0.73;;;;;;;23.46;42.01;100697.38;5054268;28;20031;-76
2021/10/24 01:48:29;;;;;;;3.33;0.90;;;;;;;23.53;42.11;100688.19;5052992;28;20025;-76
2021/10/24 01:50:55;;;;;;;2.78;0.60;;;;;;;23.40;42.68;100687.03;5052854;28;20376;-76
2021/10/24 01:53:22;;;;;;;4.18;1.10;;;;;;;23.55;42.30;100688.59;5054124;28;20025;-76
2021/10/24 01:55:49;;;;;;;2.05;0.80;;;;;;;23.56;41.87;100681.00;5054088;28;20078;-76
2021/10/24 01:58:14;;;;;;;2.60;0.95;;;;;;;23.52;42.30;100686.63;5054136;28;20021;-82
2021/10/24 02:00:42;;;;;;;3.30;0.90;;;;;;;23.44;42.40;100669.09;5054015;28;20075;-76
2021/10/24 02:03:09;;;;;;;1.35;0.95;;;;;;;23.70;41.99;100676.22;5058182;28;20028;-76
2021/10/24 02:05:35;;;;;;;2.83;1.30;;;;;;;23.70;41.86;100676.22;5073791;28;20158;-76
2021/10/24 02:08:01;;;;;;;2.30;0.70;;;;;;;23.53;42.66;100679.84;5073800;28;20028;-76
2021/10/24 02:10:27;;;;;;;3.78;0.98;;;;;;;23.61;42.13;100675.06;5073724;28;20017;-76
2021/10/24 02:12:53;;;;;;;3.80;0.90;;;;;;;23.66;42.32;100675.44;5073788;28;20494;-81
2021/10/24 02:15:18;;;;;;;2.47;0.93;;;;;;;23.89;41.58;100688.13;5073486;28;20021;-81
2021/10/24 02:17:44;;;;;;;2.42;0.90;;;;;;;23.80;41.90;100686.56;5072380;28;20029;-76
2021/10/24 02:20:10;;;;;;;2.40;1.00;;;;;;;23.71;42.34;100683.38;5072064;28;20183;-76
2021/10/24 02:22:37;;;;;;;5.03;1.63;;;;;;;23.93;42.07;100677.72;5073520;28;20033;-76
2021/10/24 02:25:04;;;;;;;5.20;1.55;;;;;;;23.89;42.30;100672.16;5073533;28;20107;-76
2021/10/24 02:27:30;;;;;;;5.10;1.05;;;;;;;23.95;41.78;100662.16;5072107;28;20450;-81
2021/10/24 02:29:55;;;;;;;6.65;1.92;;;;;;;23.76;42.69;100671.03;5072872;28;20079;-76
2021/10/24 02:32:21;;;;;;;7.53;1.60;;;;;;;23.99;42.37;100659.34;5072686;28;20029;-76
2021/10/24 02:34:47;;;;;;;4.15;1.45;;;;;;;24.09;41.87;100669.66;5073309;28;20020;-76
2021/10/24 02:37:14;;;;;;;4.65;1.35;;;;;;;24.19;41.81;100668.03;5073257;28;20394;-76
2021/10/24 02:39:39;;;;;;;5.85;1.65;;;;;;;23.96;42.56;100660.97;5073223;28;20063;-77
2021/10/24 02:42:06;;;;;;;5.93;1.45;;;;;;;24.14;42.06;100663.66;5073169;28;20060;-76
2021/10/24 02:44:32;;;;;;;8.50;1.10;;;;;;;24.18;41.89;100670.03;5073137;28;20028;-76
2021/10/24 02:46:57;;;;;;;4.78;1.02;;;;;;;24.21;41.70;100669.22;5073095;28;20371;-76
2021/10/24 02:49:24;;;;;;;6.03;1.25;;;;;;;24.27;41.94;100656.41;5073090;28;20025;-76
2021/10/24 02:51:49;;;;;;;5.03;1.05;;;;;;;24.28;41.72;100649.63;5072959;28;20528;-76
2021/10/24 02:54:16;;;;;;;5.35;1.48;;;;;;;24.22;42.08;100644.88;5072981;28;20028;-78
2021/10/24 02:56:42;;;;;;;3.70;1.00;;;;;;;24.20;41.78;100662.03;5072885;28;20107;-76
2021/10/24 02:59:07;;;;;;;7.68;0.98;;;;;;;24.23;42.02;100646.47;5072911;28;20100;-76
2021/10/24 03:01:33;;;;;;;6.35;1.52;;;;;;;24.27;41.81;100650.84;5072863;28;20032;-76
2021/10/24 03:03:59;;;;;;;4.22;1.02;;;;;;;24.28;41.68;100648.84;5072815;28;20150;-76
2021/10/24 03:06:24;;;;;;;6.03;0.93;;;;;;;24.31;41.43;100648.78;5072775;28;20498;-76
2021/10/24 03:08:50;;;;;;;2.63;0.80;;;;;;;24.22;42.07;100642.09;5072842;28;20098;-76
2021/10/24 03:11:15;;;;;;;1.52;0.68;;;;;;;24.22;42.11;100637.28;5072577;28;20115;-76
2021/10/24 03:13:41;;;;;;;3.25;1.00;;;;;;;24.29;41.78;100640.03;5072706;28;20534;-76
2021/10/24 03:16:07;;;;;;;4.68;0.77;;;;;;;23.94;42.48;100641.03;5072633;28;20044;-76
2021/10/24 03:18:32;;;;;;;1.50;0.77;;;;;;;23.94;42.47;100635.44;5072677;28;20490;-76
2021/10/24 03:20:58;;;;;;;3.05;0.80;;;;;;;23.97;42.49;100628.28;5072581;28;20029;-76
2021/10/24 03:23:23;;;;;;;1.63;0.30;;;;;;;24.02;41.99;100616.66;5072614;28;20029;-76
2021/10/24 03:25:49;;;;;;;0.63;0.47;;;;;;;23.99;42.27;100617.50;5072535;28;20029;-76
2021/10/24 03:28:15;;;;;;;1.67;0.50;;;;;;;23.99;41.89;100607.13;5072800;28;20528;-76
2021/10/24 03:30:41;;;;;;;1.08;0.50;;;;;;;23.72;42.80;100620.81;5072247;28;20048;-76
2021/10/24 03:33:07;;;;;;;3.13;0.85;;;;;;;23.86;42.44;100622.75;5072486;28;20416;-76
2021/10/24 03:35:33;;;;;;;2.33;0.55;;;;;;;23.80;42.38;100619.59;5072483;28;20603;-76
2021/10/24 03:37:58;;;;;;;1.73;0.43;;;;;;;23.74;42.49;100617.63;5072512;28;20031;-76
2021/10/24 03:40:24;;;;;;;0.88;0.47;;;;;;;23.53;42.94;100624.84;5072402;28;20087;-76
2021/10/24 03:42:50;;;;;;;0.55;0.30;;;;;;;23.78;41.90;100624.78;5072140;28;20033;-76
2021/10/24 03:45:15;;;;;;;11.63;1.25;;;;;;;23.63;42.16;100631.63;5072284;28;20025;-76
2021/10/24 03:47:41;;;;;;;1.65;0.32;;;;;;;23.60;42.69;100632.44;5072355;28;20158;-76
2021/10/24 03:50:07;;;;;;;1.85;0.40;;;;;;;23.56;42.14;100637.19;5072326;28;20056;-76
2021/10/24 03:52:33;;;;;;;2.78;1.08;;;;;;;23.58;42.17;100623.66;5072304;28;20489;-76
2021/10/24 03:54:58;;;;;;;0.90;0.40;;;;;;;23.67;41.92;100623.25;5072276;28;20115;-76
2021/10/24 03:57:24;;;;;;;3.00;0.65;;;;;;;23.69;41.97;100634.78;5072310;28;20147;-80
2021/10/24 03:59:50;;;;;;;2.35;0.57;;;;;;;23.43;42.55;100636.06;5072290;28;20398;-76
2021/10/24 04:02:16;;;;;;;5.88;0.50;;;;;;;23.66;41.72;100638.41;5072249;28;20028;-76
2021/10/24 04:04:44;;;;;;;2.40;1.00;;;;;;;23.72;41.63;100645.13;5072125;28;20502;-76
2021/10/24 04:07:10;;;;;;;1.52;0.75;;;;;;;23.70;41.84;100642.75;5072131;28;20057;-76
2021/10/24 04:09:36;;;;;;;1.15;0.52;;;;;;;23.68;41.49;100639.56;5072147;28;20050;-76
2021/10/24 04:12:02;;;;;;;0.82;0.40;;;;;;;23.63;41.34;100636.41;5072078;28;20032;-77
2021/10/24 04:14:28;;;;;;;3.50;0.60;;;;;;;23.63;41.60;100631.63;5072069;28;20059;-76
2021/10/24 04:16:54;;;;;;;2.05;0.55;;;;;;;23.60;41.63;100626.84;5072103;28;20455;-76
2021/10/24 04:19:20;;;;;;;2.47;0.90;;;;;;;23.61;41.46;100636.81;5071990;28;20052;-76
2021/10/24 04:21:45;;;;;;;1.35;0.68;;;;;;;23.74;40.93;100632.38;5071984;28;20441;-76
2021/10/24 04:24:11;;;;;;;3.42;0.47;;;;;;;23.80;40.92;100622.41;5071951;28;20107;-77
2021/10/24 04:26:37;;;;;;;1.65;0.50;;;;;;;23.67;40.90;100621.25;5071947;28;20082;-78
2021/10/24 04:29:02;;;;;;;1.98;0.82;;;;;;;23.66;41.16;100630.81;5071789;28;20029;-76
2021/10/24 04:31:28;;;;;;;0.85;0.40;;;;;;;23.65;40.81;100628.41;5071923;28;20044;-76
2021/10/24 04:33:54;;;;;;;2.28;1.00;;;;;;;23.72;40.88;100631.19;5071928;28;20055;-77
2021/10/24 04:36:20;;;;;;;2.75;0.60;;;;;;;23.68;40.95;100628.41;5072003;28;20029;-76
2021/10/24 04:38:46;;;;;;;2.67;0.75;;;;;;;23.62;40.67;100627.25;5071915;28;20066;-76
2021/10/24 04:41:11;;;;;;;0.95;0.47;;;;;;;23.56;40.51;100634.41;5070621;28;20024;-76
2021/10/24 04:43:37;;;;;;;2.58;0.60;;;;;;;23.45;41.12;100631.66;5071737;28;20032;-75
2021/10/24 04:46:03;;;;;;;3.42;0.82;;;;;;;23.37;41.15;100627.31;5071719;28;20040;-76
2021/10/24 04:48:28;;;;;;;1.45;0.60;;;;;;;23.41;41.01;100628.06;5069517;28;20050;-76
2021/10/24 04:50:54;;;;;;;1.75;0.80;;;;;;;23.35;40.95;100626.91;5071071;28;20068;-77
2021/10/24 04:53:20;;;;;;;2.47;1.02;;;;;;;23.25;41.09;100617.38;5071673;28;20028;-76
2021/10/24 04:55:45;;;;;;;4.25;0.80;;;;;;;23.37;40.99;100621.72;5073289;28;20024;-76
2021/10/24 04:58:11;;;;;;;4.35;1.45;;;;;;;23.33;40.81;100620.13;5073937;28;20028;-76
2021/10/24 05:00:37;;;;;;;1.58;0.65;;;;;;;23.31;41.11;100614.19;5066594;28;20232;-77
2021/10/24 05:03:02;;;;;;;5.07;1.02;;;;;;;23.26;40.69;100618.16;5057747;28;20028;-76
2021/10/24 05:05:28;;;;;;;5.10;0.80;;;;;;;23.25;40.78;100622.94;5055124;28;20053;-77
2021/10/24 05:07:54;;;;;;;1.75;1.00;;;;;;;23.17;41.04;100626.94;5055125;28;20025;-79
2021/10/24 05:10:20;;;;;;;2.83;1.13;;;;;;;23.20;41.10;100620.59;5057477;28;20102;-81
2021/10/24 05:12:45;;;;;;;3.05;0.95;;;;;;;23.13;41.00;100615.03;5055002;28;20021;-77
2021/10/24 05:15:11;;;;;;;6.68;0.82;;;;;;;23.04;41.18;100611.84;5055001;28;20147;-80
2021/10/24 05:17:37;;;;;;;4.18;1.10;;;;;;;22.96;41.45;100607.47;5054923;28;20028;-79
2021/10/24 05:20:05;;;;;;;1.77;0.73;;;;;;;22.84;41.61;100602.31;5054863;28;20471;-82
2021/10/24 05:22:30;;;;;;;1.05;0.70;;;;;;;22.88;41.41;100603.13;5054672;28;20107;-81
2021/10/24 05:24:56;;;;;;;1.88;0.80;;;;;;;22.82;41.84;100601.88;5053318;28;20188;-80
2021/10/24 05:27:21;;;;;;;4.13;0.90;;;;;;;22.90;41.29;100606.31;5053296;28;20028;-75
2021/10/24 05:29:47;;;;;;;2.92;1.58;;;;;;;22.83;41.72;100603.50;5054385;28;20525;-77
2021/10/24 05:32:13;;;;;;;2.85;0.98;;;;;;;22.87;41.64;100607.09;5054437;28;20108;-80
2021/10/24 05:34:39;;;;;;;4.10;0.80;;;;;;;22.84;41.50;100605.88;5054506;28;20021;-76
2021/10/24 05:37:05;;;;;;;4.45;1.55;;;;;;;22.79;41.70;100606.28;5054439;28;20021;-76
2021/10/24 05:39:31;;;;;;;3.65;0.98;;;;;;;22.82;41.38;100601.88;5053002;28;20033;-76
2021/10/24 05:41:57;;;;;;;3.80;1.75;;;;;;;22.79;41.39;100600.72;5054384;28;20387;-76
2021/10/24 05:44:23;;;;;;;4.63;0.95;;;;;;;22.84;41.42;100611.47;5054271;28;20035;-77
2021/10/24 05:46:49;;;;;;;4.72;1.38;;;;;;;22.79;41.19;100613.84;5053393;28;20672;-77
2021/10/24 05:49:15;;;;;;;4.82;1.40;;;;;;;22.84;41.30;100614.25;5063216;28;20032;-81
2021/10/24 05:51:42;;;;;;;2.10;0.88;;;;;;;22.84;41.08;100611.47;5064476;28;20046;-80
2021/10/24 05:54:08;;;;;;;6.63;1.30;;;;;;;22.83;41.42;100620.22;5063362;28;20120;-76
2021/10/24 05:56:34;;;;;;;2.97;1.10;;;;;;;22.74;41.36;100614.22;5063299;28;20020;-77
2021/10/24 05:58:59;;;;;;;5.05;1.05;;;;;;;22.75;41.53;100619.44;5064649;28;20332;-80
2021/10/24 06:01:26;;;;;;;5.50;1.00;;;;;;;22.71;41.56;100613.84;5059764;28;20434;-75
2021/10/24 06:03:53;;;;;;;4.38;1.08;;;;;;;22.62;41.86;100609.88;5055710;28;20032;-75
2021/10/24 06:06:18;;;;;;;4.95;1.20;;;;;;;22.74;41.49;100617.81;5053917;28;20151;-75
2021/10/24 06:08:44;;;;;;;5.88;1.63;;;;;;;22.76;41.55;100620.22;5053943;28;20063;-76
2021/10/24 06:13:45;;;;;;;3.55;1.08;;;;;;;22.77;41.48;100613.47;5054143;28;20083;-76
2021/10/24 06:16:12;;;;;;;4.63;1.73;;;;;;;22.77;41.47;100616.25;5053757;28;20049;-76
2021/10/24 06:18:38;;;;;;;5.65;1.23;;;;;;;22.76;41.26;100612.66;5052344;28;20059;-76
2021/10/24 06:21:05;;;;;;;5.68;1.25;;;;;;;22.77;41.48;100616.25;5052142;28;20057;-75
2021/10/24 06:23:30;;;;;;;5.05;1.15;;;;;;;22.76;41.39;100611.88;5053585;28;20029;-77
2021/10/24 06:25:56;;;;;;;4.07;1.60;;;;;;;22.75;41.53;100610.25;5053642;28;20033;-77
2021/10/24 06:28:22;;;;;;;6.97;1.30;;;;;;;22.68;41.65;100617.44;5053208;28;20032;-77
2021/10/24 06:30:47;;;;;;;7.03;1.23;;;;;;;22.60;41.80;100615.06;5051838;28;20049;-76
2021/10/24 06:33:13;;;;;;;5.50;1.58;;;;;;;22.57;41.92;100608.28;5053413;28;20086;-76
2021/10/24 06:35:39;;;;;;;9.52;1.90;;;;;;;22.52;41.99;100608.69;5052025;28;20032;-76
2021/10/24 06:38:04;;;;;;;5.05;1.05;;;;;;;22.48;42.10;100612.66;5053353;28;20025;-75
2021/10/24 06:40:30;;;;;;;9.50;1.50;;;;;;;22.46;42.07;100610.28;5051928;28;20033;-78
2021/10/24 06:42:55;;;;;;;8.45;1.95;;;;;;;22.45;42.21;100603.13;5053327;28;20086;-76
2021/10/24 06:45:21;;;;;;;5.55;1.40;;;;;;;22.43;41.96;100602.69;5051791;28;20051;-75
2021/10/24 06:47:47;;;;;;;6.85;1.85;;;;;;;22.40;41.88;100614.63;5053293;28;20033;-76
2021/10/24 06:50:14;;;;;;;6.25;1.92;;;;;;;22.37;42.18;100623.78;5051792;28;20429;-76
2021/10/24 06:52:40;;;;;;;6.10;1.98;;;;;;;22.44;41.81;100618.19;5053155;28;20032;-78
2021/10/24 06:55:06;;;;;;;5.22;2.17;;;;;;;22.43;41.89;100622.19;5053031;28;20043;-77
2021/10/24 06:57:43;;;;;;;5.47;1.73;;;;;;;22.43;41.93;100627.75;5053100;28;20108;-76
2021/10/24 07:00:09;;;;;;;17.05;4.20;;;;;;;22.51;41.59;100622.97;5053071;28;20029;-76
2021/10/24 07:02:35;;;;;;;7.78;1.98;;;;;;;22.48;41.96;100623.78;5052350;28;20028;-76
2021/10/24 07:05:01;;;;;;;7.38;1.92;;;;;;;22.47;42.04;100611.88;5051675;28;20028;-76
2021/10/24 07:07:27;;;;;;;9.93;1.90;;;;;;;22.47;41.83;100625.78;5052653;28;20029;-76
2021/10/24 07:09:52;;;;;;;7.82;2.90;;;;;;;22.44;42.16;100629.34;5051498;28;20528;-76
2021/10/24 07:12:18;;;;;;;10.27;1.95;;;;;;;22.51;41.93;100628.56;5052660;28;20414;-78
2021/10/24 07:14:44;;;;;;;15.02;2.20;;;;;;;22.48;42.11;100627.38;5052762;28;20455;-76
2021/10/24 07:17:09;;;;;;;9.35;1.90;;;;;;;22.50;41.93;100627.75;5052211;28;20033;-76
2021/10/24 07:19:35;;;;;;;8.00;2.10;;;;;;;22.53;41.90;100634.53;5052719;28;20394;-76
2021/10/24 07:22:01;;;;;;;10.10;2.03;;;;;;;22.51;41.85;100632.13;5052799;28;20518;-77
2021/10/24 07:24:26;;;;;;;6.97;2.50;;;;;;;22.52;41.97;100633.75;5052702;28;20033;-80
2021/10/24 07:26:52;;;;;;;11.27;2.30;;;;;;;22.57;41.57;100624.97;5052238;28;20040;-79
2021/10/24 07:29:18;;;;;;;10.50;3.00;;;;;;;22.50;41.79;100633.34;5051023;28;20087;-77
2021/10/24 07:31:44;;;;;;;11.07;2.65;;;;;;;22.52;41.76;100630.13;5051168;28;20037;-78
2021/10/24 07:34:10;;;;;;;9.02;1.90;;;;;;;22.55;41.85;100638.50;5052776;28;20120;-78
2021/10/24 07:36:35;;;;;;;14.30;2.28;;;;;;;22.58;41.86;100632.13;5059767;28;20482;-77
2021/10/24 07:39:01;;;;;;;9.68;2.40;;;;;;;22.62;41.71;100629.38;5052512;28;20399;-77
2021/10/24 07:41:27;;;;;;;8.55;2.20;;;;;;;22.59;41.79;100633.72;5052399;28;20029;-77
2021/10/24 07:43:52;;;;;;;8.85;2.08;;;;;;;22.56;41.94;100654.03;5052488;28;20082;-77
2021/10/24 07:46:18;;;;;;;9.32;2.97;;;;;;;22.65;41.95;100651.63;5052546;28;20468;-79
2021/10/24 07:48:43;;;;;;;7.20;2.20;;;;;;;22.64;42.15;100655.63;5052743;28;20460;-79
2021/10/24 07:51:09;;;;;;;11.50;2.75;;;;;;;22.50;42.55;100663.16;5052482;28;20423;-78
2021/10/24 07:53:34;;;;;;;11.60;2.97;;;;;;;22.69;42.29;100646.88;5052591;28;20361;-77
2021/10/24 07:56:02;;;;;;;10.20;3.55;;;;;;;22.83;42.26;100648.88;5052383;28;20032;-77
2021/10/24 07:58:28;;;;;;;12.60;3.05;;;;;;;22.77;42.34;100644.09;5051079;28;20025;-77
2021/10/24 08:00:54;;;;;;;11.23;2.70;;;;;;;22.84;42.43;100647.66;5055834;28;20494;-77
2021/10/24 08:03:20;;;;;;;11.38;3.03;;;;;;;22.92;42.32;100660.44;5057957;28;20029;-79
2021/10/24 08:05:46;;;;;;;10.10;2.47;;;;;;;22.82;42.64;100650.06;5052240;28;20029;-79
2021/10/24 08:08:11;;;;;;;7.32;1.98;;;;;;;22.80;42.67;100649.66;5052511;28;20155;-79
2021/10/24 08:10:37;;;;;;;9.85;2.75;;;;;;;22.90;42.35;100656.47;5058016;28;20032;-88
2021/10/24 08:13:03;;;;;;;7.78;2.50;;;;;;;22.96;42.28;100654.84;5065875;28;20064;-79
2021/10/24 08:15:29;;;;;;;12.20;1.98;;;;;;;22.93;42.32;100655.66;5069735;28;20067;-81
2021/10/24 08:17:55;;;;;;;12.77;2.75;;;;;;;22.91;42.34;100660.84;5056418;28;20040;-81
2021/10/24 08:20:21;;;;;;;13.80;2.80;;;;;;;22.93;42.47;100658.44;5060702;28;20033;-83
2021/10/24 08:22:46;;;;;;;15.55;2.72;;;;;;;23.04;42.34;100658.41;5058239;28;20040;-77
2021/10/24 08:25:13;;;;;;;12.23;2.70;;;;;;;23.14;41.97;100661.19;5058039;28;20050;-86
2021/10/24 08:27:39;;;;;;;12.32;3.28;;;;;;;23.04;42.61;100664.78;5053426;28;20040;-86
2021/10/24 08:30:08;;;;;;;10.77;2.47;;;;;;;23.16;42.14;100669.94;5060909;28;20487;-78
2021/10/24 08:32:33;;;;;;;15.15;2.88;;;;;;;23.28;42.15;100665.97;5058389;28;20498;-85
2021/10/24 08:35:00;;;;;;;10.60;3.17;;;;;;;23.19;42.45;100660.00;5061721;28;20059;-87
2021/10/24 08:37:26;;;;;;;19.40;3.33;;;;;;;23.44;42.21;100662.75;5058033;28;20037;-77
2021/10/24 08:39:56;;;;;;;9.95;2.63;;;;;;;23.41;42.16;100666.31;5060062;28;20036;-86
2021/10/24 08:42:31;;;;;;;13.68;3.17;;;;;;;23.47;42.02;100659.13;5061713;28;20037;-78
2021/10/24 08:44:59;;;;;;;12.88;3.10;;;;;;;23.51;41.93;100665.50;5060279;28;20133;-91
2021/10/24 08:47:25;;;;;;;11.85;3.08;;;;;;;23.58;42.28;100667.44;5063970;28;20402;-95
2021/10/24 08:49:52;;;;;;;13.90;3.05;;;;;;;23.70;41.92;100662.28;5066111;28;20054;-92
2021/10/24 08:52:20;;;;;;;11.35;2.13;;;;;;;23.82;41.50;100671.41;5062846;28;20474;-88
2021/10/24 08:54:45;;;;;;;10.95;2.97;;;;;;;23.75;41.91;100670.22;5059204;28;20025;-87
2021/10/24 08:57:11;;;;;;;13.40;2.92;;;;;;;23.86;42.11;100680.53;5064139;28;20063;-80
2021/10/24 08:59:37;;;;;;;10.82;3.10;;;;;;;23.94;41.72;100673.72;5062676;28;20035;-94
2021/10/24 09:02:03;;;;;;;13.55;3.33;;;;;;;24.09;41.56;100675.25;5061510;28;20077;-78
2021/10/24 09:04:29;;;;;;;8.27;2.67;;;;;;;24.17;41.35;100676.78;5062715;28;20028;-77
2021/10/24 09:06:56;;;;;;;13.63;3.63;;;;;;;24.11;41.62;100670.06;5061378;28;20025;-77
2021/10/24 09:09:30;;;;;;;16.02;3.30;;;;;;;24.20;41.47;100659.25;5058607;28;20033;-87
2021/10/24 09:12:03;;;;;;;10.82;3.38;;;;;;;24.07;41.59;100660.91;5057703;28;20100;-85
2021/10/24 09:14:48;;;;;;;14.63;4.05;;;;;;;24.17;41.66;100665.63;5063049;28;20049;-77
2021/10/24 09:17:31;;;;;;;16.25;4.55;;;;;;;24.18;41.67;100664.44;5065912;28;20067;-78
2021/10/24 09:20:03;;;;;;;7.60;2.50;;;;;;;24.27;41.24;100655.63;5070142;28;20046;-80
2021/10/24 09:22:46;;;;;;;12.25;2.65;;;;;;;24.35;41.03;100655.19;5061951;28;20158;-77
2021/10/24 09:25:19;;;;;;;9.05;3.05;;;;;;;24.31;41.44;100648.78;5060499;28;20069;-87
2021/10/24 09:28:00;;;;;;;13.75;3.17;;;;;;;24.41;40.83;100658.34;5057572;28;20048;-88
2021/10/24 09:30:33;;;;;;;14.77;2.90;;;;;;;24.54;41.16;100661.44;5066544;28;20032;-83
2021/10/24 09:33:10;;;;;;;14.80;3.40;;;;;;;24.64;41.09;100666.16;5070545;28;20140;-84
2021/10/24 09:35:43;;;;;;;17.83;3.22;;;;;;;24.76;40.60;100662.84;5065640;28;20044;-89
2021/10/24 09:38:17;;;;;;;10.52;2.50;;;;;;;24.84;40.67;100658.00;5061067;28;20086;-81
2021/10/24 09:40:46;;;;;;;13.90;3.55;;;;;;;24.79;40.53;100661.25;5058449;28;20490;-81
2021/10/24 09:43:19;;;;;;;17.45;4.53;;;;;;;24.76;40.59;100660.06;5056358;28;20506;-82
2021/10/24 09:46:08;;;;;;;11.85;2.78;;;;;;;24.83;40.60;100662.00;5057815;28;20024;-87
2021/10/24 09:48:36;;;;;;;16.13;3.60;;;;;;;24.93;40.28;100652.72;5054225;28;20127;-77
2021/10/24 09:51:10;;;;;;;10.45;3.42;;;;;;;24.88;40.64;100658.78;5048871;28;20039;-82
2021/10/24 09:53:41;;;;;;;11.25;3.15;;;;;;;24.88;40.62;100659.56;5051755;28;20406;-76
2021/10/24 09:56:15;;;;;;;14.40;3.15;;;;;;;24.98;40.31;100665.47;5059080;28;20055;-78
2021/10/24 09:58:44;;;;;;;12.65;3.90;;;;;;;25.08;40.01;100651.41;5059698;28;20537;-78
2021/10/24 10:01:12;;;;;;;14.00;3.00;;;;;;;25.15;39.99;100656.16;5058954;28;20039;-80
2021/10/24 10:03:39;;;;;;;8.43;2.80;;;;;;;25.11;40.39;100655.41;5058488;28;20045;-77
2021/10/24 10:06:05;;;;;;;12.05;2.75;;;;;;;25.13;40.08;100652.97;5058575;28;20463;-80
2021/10/24 10:08:31;;;;;;;10.50;2.60;;;;;;;25.15;40.34;100651.34;5060693;28;20057;-80
2021/10/24 10:11:31;;;;;;;15.43;3.00;;;;;;;25.38;39.47;100647.91;5062821;28;20032;-89
2021/10/24 10:14:04;;;;;;;13.63;5.22;;;;;;;25.41;39.68;100651.91;5067516;28;20071;-80
2021/10/24 10:16:34;;;;;;;8.48;2.35;;;;;;;25.36;39.39;100646.75;5057547;28;20501;-78
2021/10/24 10:19:02;;;;;;;11.85;3.35;;;;;;;25.49;39.19;100645.00;5062328;28;20087;-77
2021/10/24 10:21:32;;;;;;;11.23;2.83;;;;;;;25.47;39.23;100639.03;5057722;28;20033;-82
2021/10/24 10:24:01;;;;;;;10.27;3.72;;;;;;;25.60;39.23;100633.69;5063079;28;20037;-81
2021/10/24 10:26:39;;;;;;;14.15;2.70;;;;;;;25.66;38.89;100635.59;5063846;28;20025;-76
2021/10/24 10:29:14;;;;;;;9.15;2.70;;;;;;;25.91;38.58;100640.09;5060351;28;20123;-77
2021/10/24 10:32:00;;;;;;;13.18;3.38;;;;;;;25.84;38.70;100634.59;5058195;28;20025;-78
2021/10/24 10:34:27;;;;;;;11.57;3.35;;;;;;;25.75;38.61;100631.53;5061443;28;20040;-81
2021/10/24 10:36:55;;;;;;;13.18;3.38;;;;;;;25.77;38.48;100635.50;5060424;28;20020;-81
2021/10/24 10:39:30;;;;;;;7.90;2.60;;;;;;;25.99;38.17;100636.00;5061293;28;20047;-85
2021/10/24 10:41:56;;;;;;;12.35;2.92;;;;;;;25.94;38.23;100631.69;5061451;28;20025;-83
2021/10/24 10:44:22;;;;;;;4.97;1.48;;;;;;;26.08;37.97;100632.69;5058429;28;20498;-86
2021/10/24 10:46:48;;;;;;;18.98;3.35;;;;;;;26.03;38.15;100628.34;5057464;28;20048;-82
2021/10/24 10:49:24;;;;;;;10.18;2.25;;;;;;;25.93;37.72;100629.31;5063470;28;20020;-78
2021/10/24 10:51:50;;;;;;;10.55;3.10;;;;;;;25.91;38.09;100626.91;5051969;28;20025;-78
2021/10/24 10:54:17;;;;;;;9.82;2.50;;;;;;;25.82;38.02;100634.22;5056557;28;20028;-78
2021/10/24 10:56:44;;;;;;;7.72;3.20;;;;;;;26.03;37.94;100630.38;5058618;28;20490;-81
2021/10/24 10:59:28;;;;;;;9.90;2.58;;;;;;;26.16;37.57;100636.97;5059406;28;20660;-79
2021/10/24 11:01:54;;;;;;;11.75;3.47;;;;;;;26.23;37.34;100636.88;5055452;28;20071;-81
2021/10/24 11:04:21;;;;;;;9.85;2.40;;;;;;;26.02;37.64;100634.38;5063195;28;20074;-84
2021/10/24 11:06:53;;;;;;;15.20;3.10;;;;;;;26.29;37.21;100632.38;5056963;28;20039;-80
2021/10/24 11:09:45;;;;;;;6.47;2.30;;;;;;;26.45;36.85;100634.53;5061356;28;20021;-79
2021/10/24 11:12:30;;;;;;;9.13;2.55;;;;;;;26.24;37.00;100635.66;5061799;28;20054;-78
2021/10/24 11:15:17;;;;;;;16.67;2.78;;;;;;;26.49;36.54;100636.09;5056010;28;20077;-90
2021/10/24 11:17:47;;;;;;;9.20;2.42;;;;;;;26.58;36.36;100634.75;5055891;28;20115;-79
2021/10/24 11:20:23;;;;;;;14.00;3.42;;;;;;;26.78;36.17;100635.63;5060123;28;20561;-79
2021/10/24 11:23:03;;;;;;;12.00;2.45;;;;;;;26.84;36.22;100622.72;5066785;28;20024;-89
2021/10/24 11:25:37;;;;;;;12.95;2.60;;;;;;;26.83;36.02;100623.94;5062944;28;20027;-78